sensor_id;sensor_type;location;lat;lon;timestamp;temperature;humidity
573;DHT22;271;51.114;13.780;2022-07-29T00:01:51;15.30;1.00
573;DHT22;271;51.114;13.780;2022-07-29T00:04:18;15.30;1.00
573;DHT22;271;51.114;13.780;2022-07-29T00:06:45;15.30;1.00
573;DHT22;271;51.114;13.780;2022-07-29T00:09:12;15.30;1.00
573;DHT22;271;51.114;13.780;2022-07-29T00:11:40;15.30;1.00
573;DHT22;271;51.114;13.780;2022-07-29T00:14:07;15.30;1.00
573;DHT22;271;51.114;13.780;2022-07-29T00:16:34;15.30;1.00
573;DHT22;271;51.114;13.780;2022-07-29T00:19:02;15.20;1.00
573;DHT22;271;51.114;13.780;2022-07-29T00:24:17;15.20;1.00
573;DHT22;271;51.114;13.780;2022-07-29T00:26:56;15.20;1.00
573;DHT22;271;51.114;13.780;2022-07-29T00:29:34;15.30;1.00
573;DHT22;271;51.114;13.780;2022-07-29T00:32:09;15.30;1.00
573;DHT22;271;51.114;13.780;2022-07-29T00:34:48;15.30;1.00
573;DHT22;271;51.114;13.780;2022-07-29T00:37:41;15.40;1.00
573;DHT22;271;51.114;13.780;2022-07-29T00:40:23;15.40;1.00
573;DHT22;271;51.114;13.780;2022-07-29T00:43:09;15.40;1.00
573;DHT22;271;51.114;13.780;2022-07-29T00:46:02;15.30;1.00
573;DHT22;271;51.114;13.780;2022-07-29T00:48:52;15.30;1.00
573;DHT22;271;51.114;13.780;2022-07-29T00:51:30;15.30;1.00
573;DHT22;271;51.114;13.780;2022-07-29T00:54:19;15.10;1.00
573;DHT22;271;51.114;13.780;2022-07-29T00:57:05;15.00;1.00
573;DHT22;271;51.114;13.780;2022-07-29T01:00:14;14.80;1.00
573;DHT22;271;51.114;13.780;2022-07-29T01:03:02;14.90;1.00
573;DHT22;271;51.114;13.780;2022-07-29T01:05:59;14.80;1.00
573;DHT22;271;51.114;13.780;2022-07-29T01:08:33;14.90;1.00
573;DHT22;271;51.114;13.780;2022-07-29T01:11:01;14.80;1.00
573;DHT22;271;51.114;13.780;2022-07-29T01:13:30;14.70;1.00
573;DHT22;271;51.114;13.780;2022-07-29T01:16:01;14.80;1.00
573;DHT22;271;51.114;13.780;2022-07-29T01:18:32;14.80;1.00
573;DHT22;271;51.114;13.780;2022-07-29T01:21:18;14.70;1.00
573;DHT22;271;51.114;13.780;2022-07-29T01:23:58;14.60;1.00
573;DHT22;271;51.114;13.780;2022-07-29T01:26:34;14.50;1.00
573;DHT22;271;51.114;13.780;2022-07-29T01:29:12;14.50;1.00
573;DHT22;271;51.114;13.780;2022-07-29T01:31:47;14.50;1.00
573;DHT22;271;51.114;13.780;2022-07-29T01:34:21;14.40;1.00
573;DHT22;271;51.114;13.780;2022-07-29T01:36:54;14.40;1.00
573;DHT22;271;51.114;13.780;2022-07-29T01:39:26;14.30;1.00
573;DHT22;271;51.114;13.780;2022-07-29T01:41:59;14.30;1.00
573;DHT22;271;51.114;13.780;2022-07-29T01:44:32;14.30;1.00
573;DHT22;271;51.114;13.780;2022-07-29T01:47:05;14.40;1.00
573;DHT22;271;51.114;13.780;2022-07-29T01:49:37;14.40;1.00
573;DHT22;271;51.114;13.780;2022-07-29T01:52:10;14.50;1.00
573;DHT22;271;51.114;13.780;2022-07-29T01:54:40;14.50;1.00
573;DHT22;271;51.114;13.780;2022-07-29T01:57:09;14.60;1.00
573;DHT22;271;51.114;13.780;2022-07-29T01:59:40;14.60;1.00
573;DHT22;271;51.114;13.780;2022-07-29T02:02:09;14.60;1.00
573;DHT22;271;51.114;13.780;2022-07-29T02:04:38;14.60;1.00
573;DHT22;271;51.114;13.780;2022-07-29T02:07:06;14.50;1.00
573;DHT22;271;51.114;13.780;2022-07-29T02:09:35;14.50;1.00
573;DHT22;271;51.114;13.780;2022-07-29T02:12:04;14.40;1.00
573;DHT22;271;51.114;13.780;2022-07-29T02:14:36;14.50;1.00
573;DHT22;271;51.114;13.780;2022-07-29T02:17:05;14.40;1.00
573;DHT22;271;51.114;13.780;2022-07-29T02:19:33;14.40;1.00
573;DHT22;271;51.114;13.780;2022-07-29T02:22:01;14.40;1.00
573;DHT22;271;51.114;13.780;2022-07-29T02:24:29;14.40;1.00
573;DHT22;271;51.114;13.780;2022-07-29T02:26:58;14.50;1.00
573;DHT22;271;51.114;13.780;2022-07-29T02:29:27;14.50;1.00
573;DHT22;271;51.114;13.780;2022-07-29T02:31:55;14.40;1.00
573;DHT22;271;51.114;13.780;2022-07-29T02:34:25;14.40;1.00
573;DHT22;271;51.114;13.780;2022-07-29T02:36:52;14.40;1.00
573;DHT22;271;51.114;13.780;2022-07-29T02:39:21;14.50;1.00
573;DHT22;271;51.114;13.780;2022-07-29T02:41:52;14.50;1.00
573;DHT22;271;51.114;13.780;2022-07-29T02:44:24;14.50;1.00
573;DHT22;271;51.114;13.780;2022-07-29T02:46:54;14.50;1.00
573;DHT22;271;51.114;13.780;2022-07-29T02:49:34;14.50;1.00
573;DHT22;271;51.114;13.780;2022-07-29T02:52:03;14.40;1.00
573;DHT22;271;51.114;13.780;2022-07-29T02:54:37;14.40;1.00
573;DHT22;271;51.114;13.780;2022-07-29T02:57:11;14.50;1.00
573;DHT22;271;51.114;13.780;2022-07-29T02:59:42;14.50;1.00
573;DHT22;271;51.114;13.780;2022-07-29T03:02:09;14.50;1.00
573;DHT22;271;51.114;13.780;2022-07-29T03:04:41;14.50;1.00
573;DHT22;271;51.114;13.780;2022-07-29T03:07:10;14.60;1.00
573;DHT22;271;51.114;13.780;2022-07-29T03:09:40;14.60;1.00
573;DHT22;271;51.114;13.780;2022-07-29T03:12:08;14.60;1.00
573;DHT22;271;51.114;13.780;2022-07-29T03:14:36;14.60;1.00
573;DHT22;271;51.114;13.780;2022-07-29T03:17:03;14.60;1.00
573;DHT22;271;51.114;13.780;2022-07-29T03:19:31;14.60;1.00
573;DHT22;271;51.114;13.780;2022-07-29T03:22:01;14.50;1.00
573;DHT22;271;51.114;13.780;2022-07-29T03:24:30;14.60;1.00
573;DHT22;271;51.114;13.780;2022-07-29T03:26:57;14.50;1.00
573;DHT22;271;51.114;13.780;2022-07-29T03:29:24;14.50;1.00
573;DHT22;271;51.114;13.780;2022-07-29T03:31:51;14.50;1.00
573;DHT22;271;51.114;13.780;2022-07-29T03:34:18;14.50;1.00
573;DHT22;271;51.114;13.780;2022-07-29T03:36:45;14.50;1.00
573;DHT22;271;51.114;13.780;2022-07-29T03:39:17;14.60;1.00
573;DHT22;271;51.114;13.780;2022-07-29T03:41:46;14.60;1.00
573;DHT22;271;51.114;13.780;2022-07-29T03:44:15;14.60;1.00
573;DHT22;271;51.114;13.780;2022-07-29T03:46:43;14.60;1.00
573;DHT22;271;51.114;13.780;2022-07-29T03:49:11;14.60;1.00
573;DHT22;271;51.114;13.780;2022-07-29T03:51:39;14.60;1.00
573;DHT22;271;51.114;13.780;2022-07-29T03:54:06;14.60;1.00
573;DHT22;271;51.114;13.780;2022-07-29T03:56:37;14.70;99.90
573;DHT22;271;51.114;13.780;2022-07-29T03:59:04;14.70;99.90
573;DHT22;271;51.114;13.780;2022-07-29T04:01:33;14.70;1.00
573;DHT22;271;51.114;13.780;2022-07-29T04:04:01;14.60;1.00
573;DHT22;271;51.114;13.780;2022-07-29T04:06:28;14.60;99.90
573;DHT22;271;51.114;13.780;2022-07-29T04:08:55;14.70;1.40
573;DHT22;271;51.114;13.780;2022-07-29T04:11:22;14.80;1.00
573;DHT22;271;51.114;13.780;2022-07-29T04:13:50;14.90;1.00
573;DHT22;271;51.114;13.780;2022-07-29T04:16:16;14.90;99.90
573;DHT22;271;51.114;13.780;2022-07-29T04:18:43;15.00;1.00
573;DHT22;271;51.114;13.780;2022-07-29T04:21:10;15.00;1.00
573;DHT22;271;51.114;13.780;2022-07-29T04:23:37;15.00;1.00
573;DHT22;271;51.114;13.780;2022-07-29T04:26:04;15.10;99.90
573;DHT22;271;51.114;13.780;2022-07-29T04:28:30;15.20;1.00
573;DHT22;271;51.114;13.780;2022-07-29T04:30:59;15.10;99.90
573;DHT22;271;51.114;13.780;2022-07-29T04:33:25;15.10;1.00
573;DHT22;271;51.114;13.780;2022-07-29T04:35:52;15.20;1.00
573;DHT22;271;51.114;13.780;2022-07-29T04:38:19;15.30;1.40
573;DHT22;271;51.114;13.780;2022-07-29T04:40:46;15.40;1.00
573;DHT22;271;51.114;13.780;2022-07-29T04:43:12;15.50;99.90
573;DHT22;271;51.114;13.780;2022-07-29T04:45:40;15.60;1.00
573;DHT22;271;51.114;13.780;2022-07-29T04:48:08;15.60;1.00
573;DHT22;271;51.114;13.780;2022-07-29T04:50:38;15.80;99.90
573;DHT22;271;51.114;13.780;2022-07-29T04:53:05;15.90;99.90
573;DHT22;271;51.114;13.780;2022-07-29T04:55:32;16.00;99.90
573;DHT22;271;51.114;13.780;2022-07-29T04:57:58;15.90;99.90
573;DHT22;271;51.114;13.780;2022-07-29T05:00:25;16.10;1.00
573;DHT22;271;51.114;13.780;2022-07-29T05:02:53;16.10;99.90
573;DHT22;271;51.114;13.780;2022-07-29T05:05:21;16.20;1.00
573;DHT22;271;51.114;13.780;2022-07-29T05:07:48;16.30;1.00
573;DHT22;271;51.114;13.780;2022-07-29T05:10:15;16.40;1.00
573;DHT22;271;51.114;13.780;2022-07-29T05:12:41;16.60;1.00
573;DHT22;271;51.114;13.780;2022-07-29T05:15:09;16.60;99.90
573;DHT22;271;51.114;13.780;2022-07-29T05:17:36;16.70;1.00
573;DHT22;271;51.114;13.780;2022-07-29T05:20:04;16.80;1.00
573;DHT22;271;51.114;13.780;2022-07-29T05:22:32;17.00;99.90
573;DHT22;271;51.114;13.780;2022-07-29T05:24:59;17.10;99.90
573;DHT22;271;51.114;13.780;2022-07-29T05:27:26;17.10;1.40
573;DHT22;271;51.114;13.780;2022-07-29T05:29:52;17.20;99.90
573;DHT22;271;51.114;13.780;2022-07-29T05:32:19;17.30;1.00
573;DHT22;271;51.114;13.780;2022-07-29T05:34:46;17.40;1.00
573;DHT22;271;51.114;13.780;2022-07-29T05:37:13;17.40;1.00
573;DHT22;271;51.114;13.780;2022-07-29T05:39:41;17.50;1.00
573;DHT22;271;51.114;13.780;2022-07-29T05:42:08;17.70;1.00
573;DHT22;271;51.114;13.780;2022-07-29T05:44:36;17.90;1.00
573;DHT22;271;51.114;13.780;2022-07-29T05:47:03;18.20;1.00
573;DHT22;271;51.114;13.780;2022-07-29T05:49:30;18.40;1.00
573;DHT22;271;51.114;13.780;2022-07-29T05:51:57;18.50;1.00
573;DHT22;271;51.114;13.780;2022-07-29T05:54:23;18.70;1.00
573;DHT22;271;51.114;13.780;2022-07-29T05:56:52;18.80;1.40
573;DHT22;271;51.114;13.780;2022-07-29T05:59:19;18.90;1.00
573;DHT22;271;51.114;13.780;2022-07-29T06:01:46;19.00;1.00
573;DHT22;271;51.114;13.780;2022-07-29T06:04:13;19.10;1.00
573;DHT22;271;51.114;13.780;2022-07-29T06:06:40;19.10;1.00
573;DHT22;271;51.114;13.780;2022-07-29T06:09:06;19.10;1.00
573;DHT22;271;51.114;13.780;2022-07-29T06:11:33;19.20;1.00
573;DHT22;271;51.114;13.780;2022-07-29T06:14:01;19.40;1.00
573;DHT22;271;51.114;13.780;2022-07-29T06:16:29;19.50;1.00
573;DHT22;271;51.114;13.780;2022-07-29T06:18:56;19.50;1.00
573;DHT22;271;51.114;13.780;2022-07-29T06:21:22;19.60;1.00
573;DHT22;271;51.114;13.780;2022-07-29T06:23:49;19.60;1.00
573;DHT22;271;51.114;13.780;2022-07-29T06:26:16;19.80;1.00
573;DHT22;271;51.114;13.780;2022-07-29T06:28:43;19.80;1.00
573;DHT22;271;51.114;13.780;2022-07-29T06:31:11;19.90;1.00
573;DHT22;271;51.114;13.780;2022-07-29T06:33:38;20.00;1.00
573;DHT22;271;51.114;13.780;2022-07-29T06:36:05;20.10;1.00
573;DHT22;271;51.114;13.780;2022-07-29T06:38:32;20.30;1.00
573;DHT22;271;51.114;13.780;2022-07-29T06:40:59;20.30;1.00
573;DHT22;271;51.114;13.780;2022-07-29T06:43:28;20.40;1.00
573;DHT22;271;51.114;13.780;2022-07-29T06:45:58;20.40;1.00
573;DHT22;271;51.114;13.780;2022-07-29T06:48:26;20.40;1.00
573;DHT22;271;51.114;13.780;2022-07-29T06:50:53;20.40;1.00
573;DHT22;271;51.114;13.780;2022-07-29T06:53:20;20.50;1.00
573;DHT22;271;51.114;13.780;2022-07-29T06:55:47;20.60;1.00
573;DHT22;271;51.114;13.780;2022-07-29T06:58:14;20.70;1.00
573;DHT22;271;51.114;13.780;2022-07-29T07:00:43;20.80;1.00
573;DHT22;271;51.114;13.780;2022-07-29T07:03:10;21.00;1.00
573;DHT22;271;51.114;13.780;2022-07-29T07:05:38;21.10;1.00
573;DHT22;271;51.114;13.780;2022-07-29T07:08:05;21.30;1.00
573;DHT22;271;51.114;13.780;2022-07-29T07:10:32;21.50;1.00
573;DHT22;271;51.114;13.780;2022-07-29T07:12:59;21.50;1.00
573;DHT22;271;51.114;13.780;2022-07-29T07:15:26;21.70;1.00
573;DHT22;271;51.114;13.780;2022-07-29T07:17:53;21.70;1.00
573;DHT22;271;51.114;13.780;2022-07-29T07:20:20;21.80;1.00
573;DHT22;271;51.114;13.780;2022-07-29T07:22:48;21.90;1.00
573;DHT22;271;51.114;13.780;2022-07-29T07:25:15;22.00;1.00
573;DHT22;271;51.114;13.780;2022-07-29T07:27:43;22.20;1.00
573;DHT22;271;51.114;13.780;2022-07-29T07:30:10;22.30;1.00
573;DHT22;271;51.114;13.780;2022-07-29T07:32:37;22.40;1.00
573;DHT22;271;51.114;13.780;2022-07-29T07:35:05;22.50;1.00
573;DHT22;271;51.114;13.780;2022-07-29T07:37:32;22.70;1.00
573;DHT22;271;51.114;13.780;2022-07-29T07:40:01;22.70;1.00
573;DHT22;271;51.114;13.780;2022-07-29T07:42:28;22.90;1.00
573;DHT22;271;51.114;13.780;2022-07-29T07:44:54;23.00;1.00
573;DHT22;271;51.114;13.780;2022-07-29T07:47:21;23.20;1.00
573;DHT22;271;51.114;13.780;2022-07-29T07:49:50;23.30;1.00
573;DHT22;271;51.114;13.780;2022-07-29T07:52:18;23.30;1.00
573;DHT22;271;51.114;13.780;2022-07-29T07:54:46;23.40;1.00
573;DHT22;271;51.114;13.780;2022-07-29T07:57:16;23.60;1.00
573;DHT22;271;51.114;13.780;2022-07-29T07:59:42;23.70;1.00
573;DHT22;271;51.114;13.780;2022-07-29T08:02:09;23.70;1.00
573;DHT22;271;51.114;13.780;2022-07-29T08:04:36;23.70;1.00
573;DHT22;271;51.114;13.780;2022-07-29T08:07:05;23.70;1.00
573;DHT22;271;51.114;13.780;2022-07-29T08:09:32;23.80;1.00
573;DHT22;271;51.114;13.780;2022-07-29T08:12:00;23.90;1.00
573;DHT22;271;51.114;13.780;2022-07-29T08:14:30;23.90;1.00
573;DHT22;271;51.114;13.780;2022-07-29T08:16:57;24.10;1.00
573;DHT22;271;51.114;13.780;2022-07-29T08:19:24;24.20;1.00
573;DHT22;271;51.114;13.780;2022-07-29T08:21:51;24.30;1.00
573;DHT22;271;51.114;13.780;2022-07-29T08:24:18;24.30;1.00
573;DHT22;271;51.114;13.780;2022-07-29T08:27:03;24.50;1.00
573;DHT22;271;51.114;13.780;2022-07-29T08:29:31;24.70;1.00
573;DHT22;271;51.114;13.780;2022-07-29T08:31:58;24.80;1.00
573;DHT22;271;51.114;13.780;2022-07-29T08:34:25;25.00;1.00
573;DHT22;271;51.114;13.780;2022-07-29T08:36:52;25.50;1.00
573;DHT22;271;51.114;13.780;2022-07-29T08:39:19;26.00;1.00
573;DHT22;271;51.114;13.780;2022-07-29T08:41:46;26.20;1.00
573;DHT22;271;51.114;13.780;2022-07-29T08:44:13;26.50;1.00
573;DHT22;271;51.114;13.780;2022-07-29T08:46:43;26.70;1.00
573;DHT22;271;51.114;13.780;2022-07-29T08:49:09;26.70;1.00
573;DHT22;271;51.114;13.780;2022-07-29T08:51:39;27.20;1.00
573;DHT22;271;51.114;13.780;2022-07-29T08:54:06;28.00;1.00
573;DHT22;271;51.114;13.780;2022-07-29T08:56:34;28.70;1.00
573;DHT22;271;51.114;13.780;2022-07-29T08:59:03;29.20;1.00
573;DHT22;271;51.114;13.780;2022-07-29T09:01:32;28.80;1.00
573;DHT22;271;51.114;13.780;2022-07-29T09:04:02;28.50;1.00
573;DHT22;271;51.114;13.780;2022-07-29T09:06:31;28.60;1.00
573;DHT22;271;51.114;13.780;2022-07-29T09:09:00;28.70;1.00
573;DHT22;271;51.114;13.780;2022-07-29T09:11:27;29.00;1.00
573;DHT22;271;51.114;13.780;2022-07-29T09:13:56;28.80;1.00
573;DHT22;271;51.114;13.780;2022-07-29T09:16:23;28.50;1.00
573;DHT22;271;51.114;13.780;2022-07-29T09:18:49;28.50;1.00
573;DHT22;271;51.114;13.780;2022-07-29T09:21:18;28.60;1.00
573;DHT22;271;51.114;13.780;2022-07-29T09:24:05;28.40;1.00
573;DHT22;271;51.114;13.780;2022-07-29T09:26:34;28.80;1.00
573;DHT22;271;51.114;13.780;2022-07-29T09:29:08;29.30;1.00
573;DHT22;271;51.114;13.780;2022-07-29T09:31:36;29.60;1.00
573;DHT22;271;51.114;13.780;2022-07-29T09:34:04;29.70;1.00
573;DHT22;271;51.114;13.780;2022-07-29T09:36:38;29.50;1.00
573;DHT22;271;51.114;13.780;2022-07-29T09:39:05;29.00;1.00
573;DHT22;271;51.114;13.780;2022-07-29T09:41:44;28.80;1.00
573;DHT22;271;51.114;13.780;2022-07-29T09:44:12;28.70;1.00
573;DHT22;271;51.114;13.780;2022-07-29T09:46:40;28.60;1.00
573;DHT22;271;51.114;13.780;2022-07-29T09:49:08;28.50;1.00
573;DHT22;271;51.114;13.780;2022-07-29T09:51:37;28.50;1.00
573;DHT22;271;51.114;13.780;2022-07-29T09:54:21;28.40;1.00
573;DHT22;271;51.114;13.780;2022-07-29T09:56:48;28.10;1.00
573;DHT22;271;51.114;13.780;2022-07-29T09:59:15;28.00;1.00
573;DHT22;271;51.114;13.780;2022-07-29T10:01:42;27.90;1.00
573;DHT22;271;51.114;13.780;2022-07-29T10:04:09;28.10;1.00
573;DHT22;271;51.114;13.780;2022-07-29T10:06:59;28.10;1.00
573;DHT22;271;51.114;13.780;2022-07-29T10:09:26;28.00;1.00
573;DHT22;271;51.114;13.780;2022-07-29T10:12:07;27.90;1.00
573;DHT22;271;51.114;13.780;2022-07-29T10:14:35;27.80;1.00
573;DHT22;271;51.114;13.780;2022-07-29T10:17:04;27.70;1.00
573;DHT22;271;51.114;13.780;2022-07-29T10:19:32;27.90;1.00
573;DHT22;271;51.114;13.780;2022-07-29T10:22:02;28.00;1.00
573;DHT22;271;51.114;13.780;2022-07-29T10:24:30;28.20;1.00
573;DHT22;271;51.114;13.780;2022-07-29T10:26:59;28.50;1.00
573;DHT22;271;51.114;13.780;2022-07-29T10:29:26;29.20;1.00
573;DHT22;271;51.114;13.780;2022-07-29T10:32:07;29.60;1.00
573;DHT22;271;51.114;13.780;2022-07-29T10:34:49;30.10;1.00
573;DHT22;271;51.114;13.780;2022-07-29T10:37:27;30.00;1.00
573;DHT22;271;51.114;13.780;2022-07-29T10:40:00;29.20;1.00
573;DHT22;271;51.114;13.780;2022-07-29T10:42:49;28.90;1.00
573;DHT22;271;51.114;13.780;2022-07-29T10:45:17;28.70;1.00
573;DHT22;271;51.114;13.780;2022-07-29T10:47:45;29.00;1.00
573;DHT22;271;51.114;13.780;2022-07-29T10:50:11;29.10;1.00
573;DHT22;271;51.114;13.780;2022-07-29T10:52:55;29.20;1.00
573;DHT22;271;51.114;13.780;2022-07-29T10:55:33;28.90;1.00
573;DHT22;271;51.114;13.780;2022-07-29T10:58:16;28.60;1.00
573;DHT22;271;51.114;13.780;2022-07-29T11:00:44;28.20;1.00
573;DHT22;271;51.114;13.780;2022-07-29T11:03:42;28.10;1.00
573;DHT22;271;51.114;13.780;2022-07-29T11:06:11;28.00;1.00
573;DHT22;271;51.114;13.780;2022-07-29T11:08:42;28.10;1.00
573;DHT22;271;51.114;13.780;2022-07-29T11:11:36;28.90;1.00
573;DHT22;271;51.114;13.780;2022-07-29T11:17:04;29.80;1.00
573;DHT22;271;51.114;13.780;2022-07-29T11:19:34;29.50;1.00
573;DHT22;271;51.114;13.780;2022-07-29T11:22:11;29.20;1.00
573;DHT22;271;51.114;13.780;2022-07-29T11:24:39;29.40;1.00
573;DHT22;271;51.114;13.780;2022-07-29T11:27:13;29.50;1.00
573;DHT22;271;51.114;13.780;2022-07-29T11:30:04;29.70;1.00
573;DHT22;271;51.114;13.780;2022-07-29T11:32:36;29.70;1.00
573;DHT22;271;51.114;13.780;2022-07-29T11:35:17;29.30;1.00
573;DHT22;271;51.114;13.780;2022-07-29T11:41:25;28.80;1.00
573;DHT22;271;51.114;13.780;2022-07-29T11:43:54;29.00;1.00
573;DHT22;271;51.114;13.780;2022-07-29T11:46:47;29.30;1.00
573;DHT22;271;51.114;13.780;2022-07-29T11:49:26;29.40;1.00
573;DHT22;271;51.114;13.780;2022-07-29T11:51:55;29.30;1.00
573;DHT22;271;51.114;13.780;2022-07-29T11:54:24;29.00;1.00
573;DHT22;271;51.114;13.780;2022-07-29T11:57:08;28.80;1.00
573;DHT22;271;51.114;13.780;2022-07-29T11:59:39;28.80;1.00
573;DHT22;271;51.114;13.780;2022-07-29T12:02:07;28.70;1.00
573;DHT22;271;51.114;13.780;2022-07-29T12:04:49;28.60;1.00
573;DHT22;271;51.114;13.780;2022-07-29T12:07:16;28.50;1.00
573;DHT22;271;51.114;13.780;2022-07-29T12:09:49;28.40;1.00
573;DHT22;271;51.114;13.780;2022-07-29T12:12:19;28.40;1.00
573;DHT22;271;51.114;13.780;2022-07-29T12:14:45;28.40;1.00
573;DHT22;271;51.114;13.780;2022-07-29T12:17:25;28.60;1.00
573;DHT22;271;51.114;13.780;2022-07-29T12:19:53;28.60;1.00
573;DHT22;271;51.114;13.780;2022-07-29T12:22:25;28.70;1.00
573;DHT22;271;51.114;13.780;2022-07-29T12:24:52;28.90;1.00
573;DHT22;271;51.114;13.780;2022-07-29T12:27:45;29.00;1.00
573;DHT22;271;51.114;13.780;2022-07-29T12:30:15;29.00;1.00
573;DHT22;271;51.114;13.780;2022-07-29T12:32:44;28.80;1.00
573;DHT22;271;51.114;13.780;2022-07-29T12:35:15;28.70;1.00
573;DHT22;271;51.114;13.780;2022-07-29T12:37:45;28.70;1.00
573;DHT22;271;51.114;13.780;2022-07-29T12:40:16;28.70;1.00
573;DHT22;271;51.114;13.780;2022-07-29T12:43:12;28.60;1.00
573;DHT22;271;51.114;13.780;2022-07-29T12:45:45;28.40;1.00
573;DHT22;271;51.114;13.780;2022-07-29T12:48:12;28.40;1.00
573;DHT22;271;51.114;13.780;2022-07-29T12:51:10;28.30;1.00
573;DHT22;271;51.114;13.780;2022-07-29T12:53:39;28.20;1.00
573;DHT22;271;51.114;13.780;2022-07-29T12:56:15;28.20;1.00
573;DHT22;271;51.114;13.780;2022-07-29T12:58:43;28.20;1.00
573;DHT22;271;51.114;13.780;2022-07-29T13:01:18;28.00;1.00
573;DHT22;271;51.114;13.780;2022-07-29T13:03:48;28.00;1.00
573;DHT22;271;51.114;13.780;2022-07-29T13:06:36;27.70;1.00
573;DHT22;271;51.114;13.780;2022-07-29T13:09:19;27.80;1.00
573;DHT22;271;51.114;13.780;2022-07-29T13:11:49;27.90;1.00
573;DHT22;271;51.114;13.780;2022-07-29T13:14:35;28.00;1.00
573;DHT22;271;51.114;13.780;2022-07-29T13:17:07;28.00;1.00
573;DHT22;271;51.114;13.780;2022-07-29T13:19:36;28.10;1.00
573;DHT22;271;51.114;13.780;2022-07-29T13:22:03;28.20;1.00
573;DHT22;271;51.114;13.780;2022-07-29T13:24:30;28.20;1.00
573;DHT22;271;51.114;13.780;2022-07-29T13:27:03;28.30;1.00
573;DHT22;271;51.114;13.780;2022-07-29T13:29:31;28.30;1.00
573;DHT22;271;51.114;13.780;2022-07-29T13:31:59;28.50;1.00
573;DHT22;271;51.114;13.780;2022-07-29T13:34:26;28.50;1.00
573;DHT22;271;51.114;13.780;2022-07-29T13:36:53;28.50;1.00
573;DHT22;271;51.114;13.780;2022-07-29T13:39:26;28.50;1.00
573;DHT22;271;51.114;13.780;2022-07-29T13:41:53;28.60;1.00
573;DHT22;271;51.114;13.780;2022-07-29T13:44:20;28.60;1.00
573;DHT22;271;51.114;13.780;2022-07-29T13:46:48;28.60;1.00
573;DHT22;271;51.114;13.780;2022-07-29T13:49:15;28.50;1.00
573;DHT22;271;51.114;13.780;2022-07-29T13:52:00;28.40;1.00
573;DHT22;271;51.114;13.780;2022-07-29T13:54:27;28.30;1.00
573;DHT22;271;51.114;13.780;2022-07-29T13:56:54;28.30;1.00
573;DHT22;271;51.114;13.780;2022-07-29T13:59:21;28.40;1.00
573;DHT22;271;51.114;13.780;2022-07-29T14:02:08;28.50;1.00
573;DHT22;271;51.114;13.780;2022-07-29T14:04:35;28.20;1.00
573;DHT22;271;51.114;13.780;2022-07-29T14:07:02;28.20;1.00
573;DHT22;271;51.114;13.780;2022-07-29T14:09:29;28.20;1.00
573;DHT22;271;51.114;13.780;2022-07-29T14:11:56;28.30;1.00
573;DHT22;271;51.114;13.780;2022-07-29T14:14:32;28.30;1.00
573;DHT22;271;51.114;13.780;2022-07-29T14:17:00;28.40;1.00
573;DHT22;271;51.114;13.780;2022-07-29T14:19:28;28.50;1.00
573;DHT22;271;51.114;13.780;2022-07-29T14:21:55;28.50;1.00
573;DHT22;271;51.114;13.780;2022-07-29T14:27:16;28.50;1.00
573;DHT22;271;51.114;13.780;2022-07-29T14:29:42;28.60;1.00
573;DHT22;271;51.114;13.780;2022-07-29T14:32:11;28.60;1.00
573;DHT22;271;51.114;13.780;2022-07-29T14:34:48;28.60;1.00
573;DHT22;271;51.114;13.780;2022-07-29T14:37:15;28.60;1.00
573;DHT22;271;51.114;13.780;2022-07-29T14:39:42;28.50;1.00
573;DHT22;271;51.114;13.780;2022-07-29T14:42:09;28.60;1.00
573;DHT22;271;51.114;13.780;2022-07-29T14:44:35;28.60;1.00
573;DHT22;271;51.114;13.780;2022-07-29T14:47:13;28.60;1.00
573;DHT22;271;51.114;13.780;2022-07-29T14:49:40;28.40;1.00
573;DHT22;271;51.114;13.780;2022-07-29T14:52:07;28.20;1.00
573;DHT22;271;51.114;13.780;2022-07-29T14:54:33;28.10;1.00
573;DHT22;271;51.114;13.780;2022-07-29T14:57:00;28.00;1.00
573;DHT22;271;51.114;13.780;2022-07-29T14:59:34;27.90;1.00
573;DHT22;271;51.114;13.780;2022-07-29T15:02:01;28.00;1.00
573;DHT22;271;51.114;13.780;2022-07-29T15:04:30;27.90;1.00
573;DHT22;271;51.114;13.780;2022-07-29T15:06:56;27.90;1.00
573;DHT22;271;51.114;13.780;2022-07-29T15:09:23;27.90;1.00
573;DHT22;271;51.114;13.780;2022-07-29T15:12:12;27.80;1.00
573;DHT22;271;51.114;13.780;2022-07-29T15:14:39;27.80;1.00
573;DHT22;271;51.114;13.780;2022-07-29T15:17:05;27.80;1.00
573;DHT22;271;51.114;13.780;2022-07-29T15:19:52;27.70;1.00
573;DHT22;271;51.114;13.780;2022-07-29T15:22:18;27.70;1.00
573;DHT22;271;51.114;13.780;2022-07-29T15:24:45;27.50;1.00
573;DHT22;271;51.114;13.780;2022-07-29T15:27:12;27.50;1.00
573;DHT22;271;51.114;13.780;2022-07-29T15:29:40;27.40;1.00
573;DHT22;271;51.114;13.780;2022-07-29T15:32:21;27.40;1.00
573;DHT22;271;51.114;13.780;2022-07-29T15:34:48;27.40;1.00
573;DHT22;271;51.114;13.780;2022-07-29T15:37:16;27.30;1.00
573;DHT22;271;51.114;13.780;2022-07-29T15:39:43;27.30;1.00
573;DHT22;271;51.114;13.780;2022-07-29T15:42:24;27.30;1.00
573;DHT22;271;51.114;13.780;2022-07-29T15:44:51;27.30;1.00
573;DHT22;271;51.114;13.780;2022-07-29T15:47:18;27.30;1.00
573;DHT22;271;51.114;13.780;2022-07-29T15:49:45;27.30;1.00
573;DHT22;271;51.114;13.780;2022-07-29T15:52:11;27.30;1.00
573;DHT22;271;51.114;13.780;2022-07-29T15:54:54;27.30;1.00
573;DHT22;271;51.114;13.780;2022-07-29T15:57:22;27.30;1.00
573;DHT22;271;51.114;13.780;2022-07-29T15:59:49;27.40;1.00
573;DHT22;271;51.114;13.780;2022-07-29T16:02:16;27.30;1.00
573;DHT22;271;51.114;13.780;2022-07-29T16:04:46;27.30;1.00
573;DHT22;271;51.114;13.780;2022-07-29T16:07:13;27.40;1.00
573;DHT22;271;51.114;13.780;2022-07-29T16:09:40;27.40;1.00
573;DHT22;271;51.114;13.780;2022-07-29T16:12:08;27.40;1.00
573;DHT22;271;51.114;13.780;2022-07-29T16:14:35;27.40;1.00
573;DHT22;271;51.114;13.780;2022-07-29T16:17:11;27.40;1.00
573;DHT22;271;51.114;13.780;2022-07-29T16:19:37;27.40;1.00
573;DHT22;271;51.114;13.780;2022-07-29T16:22:04;27.40;1.00
573;DHT22;271;51.114;13.780;2022-07-29T16:24:31;27.40;1.00
573;DHT22;271;51.114;13.780;2022-07-29T16:26:58;27.40;1.00
573;DHT22;271;51.114;13.780;2022-07-29T16:32:21;27.40;1.00
573;DHT22;271;51.114;13.780;2022-07-29T16:34:48;27.40;1.00
573;DHT22;271;51.114;13.780;2022-07-29T16:37:15;27.30;1.00
573;DHT22;271;51.114;13.780;2022-07-29T16:40:00;27.30;1.00
573;DHT22;271;51.114;13.780;2022-07-29T16:42:26;27.40;1.00
573;DHT22;271;51.114;13.780;2022-07-29T16:44:53;27.40;1.00
573;DHT22;271;51.114;13.780;2022-07-29T16:47:21;27.30;1.00
573;DHT22;271;51.114;13.780;2022-07-29T16:49:58;27.30;1.00
573;DHT22;271;51.114;13.780;2022-07-29T16:52:24;27.20;1.00
573;DHT22;271;51.114;13.780;2022-07-29T16:54:51;27.20;1.00
573;DHT22;271;51.114;13.780;2022-07-29T16:57:18;27.20;1.00
573;DHT22;271;51.114;13.780;2022-07-29T16:59:46;27.20;1.00
573;DHT22;271;51.114;13.780;2022-07-29T17:02:25;27.10;1.00
573;DHT22;271;51.114;13.780;2022-07-29T17:04:52;27.10;1.00
573;DHT22;271;51.114;13.780;2022-07-29T17:07:19;27.00;1.00
573;DHT22;271;51.114;13.780;2022-07-29T17:09:46;27.00;1.00
573;DHT22;271;51.114;13.780;2022-07-29T17:12:31;27.00;1.00